Hope, KY (40334)

5:50 AM EST on February 10, 2016 (GMT -0500)
Oak Ridge Estates | | Change Station
CLOSE
Current Station
Personal Weather Station
Location: Stanton, KY
Elevation: 846 ft
Nearby Weather Stations
Active Advisory: Winter Weather Advisory

Elev 846 ft 37.83 °N, 83.86 °W | Updated 7 minutes ago

Overcast
Overcast
16.5 °F
Feels Like 8 °F
N
5.8
Wind Variable Wind from SW

Today
High -- | Low -- °F
--% Chance of Precip.
Yesterday
High -- | Low -- °F
Precip. -- in
Pressure 29.98 in
Visibility 2.5 miles
Clouds Mostly Cloudy 1700 ft
Mostly Cloudy 2200 ft
Overcast 5000 ft
Windchill 8 °F
Dew Point 12 °F
Humidity 81%
Rainfall 0.00 in
Snow Depth Not available.
7:31 AM 6:08 PM
Waxing Crescent, 5% visible
METAR KIOB 101035Z AUTO 28006G14KT 2 1/2SM -SN BKN017 BKN022 OVC050 M08/M10 A2998 RMK AO2
Pressure 29.98 in
Visibility 2.5 miles
Clouds Mostly Cloudy 1700 ft
Mostly Cloudy 2200 ft
Overcast 5000 ft
Windchill 8 °F
Dew Point 12 °F
Humidity 81%
Rainfall 0.00 in
Snow Depth Not available.
7:31 AM 6:08 PM
Waxing Crescent, 5% visible
METAR KIOB 101035Z AUTO 28006G14KT 2 1/2SM -SN BKN017 BKN022 OVC050 M08/M10 A2998 RMK AO2

10-Day Weather Forecast

Almanac

Astronomy

Feb. 10, 2016 Rise Set
Actual Time
Civil Twilight
Nautical Twilight
Astronomical Twilight
Moon
Length of Visible Light
Length of Day
Tomorrow will be .
, % of the Moon is Illuminated

Today's Extremes

State Highs State Lows

Community

WunderPhotos

Upload Photos

1,891,830 photos uploaded!

WunderBlog® & News

Nearby

Air Quality

  Air Quality AQ Index Pollutant
Not available.

Snow Depth

Station Depth Elevation

Earthquake Activity

City Distance Mag. Time & Date
Minimum magnitude displayed is 2.5.

Coastal Water Temperatures

Place Temperature

Stations

Nearby Weather Stations

Station Location Temp. Windchill Dew Point Humidity Wind Precip. Elev Updated Type
                   

Watches & Warnings

Winter Weather Advisory
Issued: 5:11 AM EST Feb. 10, 2016 – National Weather Service

... Winter Weather Advisory remains in effect until 10 am EST this
morning...

* scattered snow showers will gradually diminish this morning.
Most of the snow showers will be light... however there will be a
few embedded moderate to heavy snow showers at times through 10
am.

* Most locations will see between a dusting and a quarter of an
inch of snowfall... however a few spots that see passing heavier
snow showers may receive up to a half inch of snowfall.

* Roads could become snow covered quickly within any heavier snow
showers. Additionally... visibilities will be greatly reduced
within the more intense snow showers.

Precautionary/preparedness actions...

A Winter Weather Advisory for snow means that periods of snow
will cause primarily travel difficulties. Be prepared for snow
covered roads and limited visibilities... and use caution while
driving.